Time;durP1;ratioP1;P1;durP2;ratioP2;P2;SDS_P1;SDS_P2;PMS_P1;PMS_P2;Temp;Humidity;BMP_temperature;BMP_pressure;BME280_temperature;BME280_humidity;BME280_pressure;Samples;Min_cycle;Max_cycle;Signal;HPM_P1;HPM_P2
2023/08/23 00:00:14;;;;;;;0.43;0.43;;;11.00;99.90;;;;;;5095063;28;20663;-76
2023/08/23 00:02:40;;;;;;;0.55;0.55;;;11.00;99.90;;;;;;5094572;28;20232;-75
2023/08/23 00:05:07;;;;;;;0.50;0.50;;;10.90;99.90;;;;;;5094808;28;20196;-75
2023/08/23 00:07:34;;;;;;;0.50;0.50;;;10.90;99.90;;;;;;5075496;28;20289;-75
2023/08/23 00:09:59;;;;;;;0.52;0.52;;;10.90;99.90;;;;;;5094479;28;20215;-75
2023/08/23 00:12:28;;;;;;;0.50;0.50;;;10.90;99.90;;;;;;5082004;28;20192;-75
2023/08/23 00:14:54;;;;;;;0.50;0.50;;;10.80;99.90;;;;;;5074478;28;20299;-75
2023/08/23 00:17:19;;;;;;;0.50;0.50;;;10.80;99.90;;;;;;5074269;28;20295;-74
2023/08/23 00:19:46;;;;;;;0.50;0.50;;;10.80;99.90;;;;;;5074341;28;20184;-75
2023/08/23 00:22:12;;;;;;;0.63;0.63;;;10.80;99.90;;;;;;5074156;28;20283;-76
2023/08/23 00:24:37;;;;;;;0.50;0.50;;;10.80;99.90;;;;;;5073883;28;20342;-76
2023/08/23 00:27:03;;;;;;;0.63;0.63;;;10.80;99.90;;;;;;5074470;28;20213;-72
2023/08/23 00:29:29;;;;;;;0.60;0.60;;;10.80;99.90;;;;;;5069531;28;20219;-72
2023/08/23 00:31:55;;;;;;;0.50;0.50;;;10.80;99.90;;;;;;5070832;28;20196;-72
2023/08/23 00:34:20;;;;;;;0.60;0.60;;;10.70;99.90;;;;;;5035900;28;20205;-72
2023/08/23 00:36:46;;;;;;;0.50;0.50;;;10.80;99.90;;;;;;5054068;28;20190;-72
2023/08/23 00:39:12;;;;;;;0.47;0.47;;;10.80;99.90;;;;;;5053930;28;20233;-72
2023/08/23 00:41:38;;;;;;;0.50;0.50;;;10.80;99.90;;;;;;5035372;28;20205;-72
2023/08/23 00:44:04;;;;;;;0.70;0.70;;;10.80;99.90;;;;;;5036088;28;20665;-72
2023/08/23 00:46:30;;;;;;;0.82;0.82;;;10.80;99.90;;;;;;5053731;28;20194;-72
2023/08/23 00:48:56;;;;;;;0.60;0.60;;;10.80;99.90;;;;;;5053690;28;20255;-72
2023/08/23 00:51:22;;;;;;;0.50;0.50;;;10.90;99.90;;;;;;5053452;28;20610;-72
2023/08/23 00:53:48;;;;;;;0.60;0.60;;;10.90;99.90;;;;;;5053514;28;20204;-72
2023/08/23 00:56:13;;;;;;;0.50;0.50;;;11.10;99.90;;;;;;5053894;28;20202;-72
2023/08/23 00:58:39;;;;;;;0.65;0.63;;;11.30;99.90;;;;;;5053347;28;20209;-73
2023/08/23 01:01:05;;;;;;;0.52;0.52;;;11.40;99.90;;;;;;5053884;28;20186;-74
2023/08/23 01:03:32;;;;;;;0.50;0.50;;;11.50;99.90;;;;;;5071382;28;20221;-74
2023/08/23 01:06:01;;;;;;;0.40;0.40;;;11.60;99.90;;;;;;5081996;22;20293;-72
2023/08/23 01:08:50;;;;;;;3.75;1.10;;;11.70;99.90;;;;;;5063167;28;20216;-72
2023/08/23 01:11:44;;;;;;;0.50;0.50;;;11.80;99.90;;;;;;5033589;28;20206;-72
2023/08/23 01:14:35;;;;;;;0.50;0.50;;;12.00;99.90;;;;;;5033691;28;20214;-72
2023/08/23 01:17:02;;;;;;;4.97;0.93;;;12.10;99.90;;;;;;5033881;28;20191;-72
2023/08/23 01:19:39;;;;;;;0.50;0.50;;;12.10;99.90;;;;;;5032813;28;20186;-72
2023/08/23 01:22:08;;;;;;;0.50;0.50;;;12.20;99.90;;;;;;5033723;28;20198;-72
2023/08/23 01:24:34;;;;;;;0.50;0.50;;;12.30;99.90;;;;;;5033207;28;20222;-72
2023/08/23 01:27:00;;;;;;;0.40;0.40;;;12.30;99.90;;;;;;5038674;28;20726;-72
2023/08/23 01:29:25;;;;;;;0.40;0.40;;;12.30;99.90;;;;;;5053545;28;20277;-72
2023/08/23 01:31:56;;;;;;;0.47;0.47;;;12.40;99.90;;;;;;5052856;28;20197;-72
2023/08/23 01:34:31;;;;;;;0.45;0.45;;;12.40;99.90;;;;;;5053109;28;20659;-72
2023/08/23 01:37:00;;;;;;;0.50;0.50;;;12.40;99.90;;;;;;5053399;28;20193;-72
2023/08/23 01:39:26;;;;;;;0.40;0.40;;;12.50;99.90;;;;;;5051775;28;20189;-71
2023/08/23 01:41:53;;;;;;;0.50;0.50;;;12.50;99.90;;;;;;5051551;28;20200;-72
2023/08/23 01:44:19;;;;;;;0.40;0.40;;;12.60;99.90;;;;;;5052653;28;20194;-72
2023/08/23 01:46:45;;;;;;;2.35;0.60;;;12.60;99.90;;;;;;5053198;28;20667;-72
2023/08/23 01:49:11;;;;;;;0.40;0.40;;;12.60;99.90;;;;;;5052860;28;20201;-72
2023/08/23 01:51:36;;;;;;;0.63;0.63;;;12.70;99.90;;;;;;5052539;28;20311;-72
2023/08/23 01:54:02;;;;;;;0.60;0.60;;;12.70;99.90;;;;;;5052361;28;20221;-72
2023/08/23 01:56:28;;;;;;;0.47;0.47;;;12.80;99.90;;;;;;5067843;28;20220;-72
2023/08/23 01:58:54;;;;;;;0.60;0.60;;;12.80;99.90;;;;;;5052432;28;20233;-72
2023/08/23 02:01:19;;;;;;;1.08;1.02;;;12.80;99.90;;;;;;5051117;28;20640;-72
2023/08/23 02:03:46;;;;;;;0.52;0.52;;;12.80;99.90;;;;;;5052172;28;20197;-72
2023/08/23 02:06:12;;;;;;;0.60;0.60;;;12.90;99.90;;;;;;5034795;28;20240;-72
2023/08/23 02:08:38;;;;;;;0.43;0.43;;;12.90;99.90;;;;;;5052387;28;20197;-71
2023/08/23 02:11:04;;;;;;;0.50;0.50;;;12.90;99.90;;;;;;5052202;28;20255;-71
2023/08/23 02:13:29;;;;;;;0.63;0.63;;;12.90;99.90;;;;;;5052708;28;20284;-75
2023/08/23 02:15:55;;;;;;;0.30;0.30;;;13.00;99.90;;;;;;5052875;28;20678;-75
2023/08/23 02:18:21;;;;;;;0.60;0.60;;;13.00;99.90;;;;;;5051181;28;20300;-74
2023/08/23 02:20:55;;;;;;;0.50;0.50;;;13.00;99.90;;;;;;5052599;28;20204;-74
2023/08/23 02:23:21;;;;;;;0.50;0.50;;;13.10;99.90;;;;;;5052607;28;20197;-74
2023/08/23 02:25:47;;;;;;;0.40;0.40;;;13.10;99.90;;;;;;5052476;28;20267;-74
2023/08/23 02:28:13;;;;;;;1.98;1.23;;;13.10;99.90;;;;;;5051329;28;20235;-75
2023/08/23 02:30:38;;;;;;;0.50;0.50;;;13.10;99.90;;;;;;5034343;28;20212;-74
2023/08/23 02:33:04;;;;;;;0.50;0.50;;;13.10;99.90;;;;;;5038044;28;20277;-74
2023/08/23 02:35:30;;;;;;;0.52;0.52;;;13.20;99.90;;;;;;5052326;28;20200;-74
2023/08/23 02:37:57;;;;;;;0.40;0.40;;;13.20;99.90;;;;;;5052540;28;20209;-75
2023/08/23 02:40:23;;;;;;;3.55;1.70;;;13.20;99.90;;;;;;5052926;28;20224;-75
2023/08/23 02:42:49;;;;;;;0.40;0.40;;;13.20;99.90;;;;;;5050942;28;20205;-74
2023/08/23 02:45:15;;;;;;;0.50;0.50;;;13.30;99.90;;;;;;5052285;28;20248;-74
2023/08/23 02:47:40;;;;;;;0.45;0.45;;;13.30;99.90;;;;;;5051987;28;20201;-75
2023/08/23 02:50:07;;;;;;;0.52;0.52;;;13.30;99.90;;;;;;5052993;28;20197;-74
2023/08/23 02:52:33;;;;;;;0.60;0.60;;;13.30;99.90;;;;;;5052006;28;20201;-74
2023/08/23 02:54:58;;;;;;;0.40;0.40;;;13.30;99.90;;;;;;5052258;28;20190;-74
2023/08/23 02:57:24;;;;;;;0.30;0.30;;;13.40;99.90;;;;;;5051905;28;20205;-74
2023/08/23 02:59:50;;;;;;;0.43;0.43;;;13.40;99.90;;;;;;5051477;28;20203;-74
2023/08/23 03:02:16;;;;;;;0.75;0.70;;;13.40;99.90;;;;;;5051269;28;20193;-74
2023/08/23 03:04:41;;;;;;;0.40;0.40;;;13.40;99.90;;;;;;5051197;28;20229;-75
2023/08/23 03:07:07;;;;;;;0.40;0.40;;;13.50;99.90;;;;;;5052177;28;20213;-74
2023/08/23 03:09:33;;;;;;;0.40;0.40;;;13.50;99.90;;;;;;5051632;28;20217;-74
2023/08/23 03:11:58;;;;;;;0.40;0.40;;;13.50;99.90;;;;;;5051940;28;20268;-75
2023/08/23 03:14:24;;;;;;;1.48;1.30;;;13.50;99.90;;;;;;5051529;28;20189;-75
2023/08/23 03:16:50;;;;;;;0.40;0.40;;;13.50;99.90;;;;;;5051527;28;20194;-75
2023/08/23 03:19:16;;;;;;;0.40;0.40;;;13.50;99.90;;;;;;5050651;28;20297;-75
2023/08/23 03:21:41;;;;;;;0.68;0.68;;;13.50;99.90;;;;;;5051136;28;20194;-74
2023/08/23 03:24:10;;;;;;;0.30;0.30;;;13.60;99.90;;;;;;5051448;28;20656;-74
2023/08/23 03:26:36;;;;;;;0.30;0.30;;;13.60;99.90;;;;;;5049661;28;20205;-74
2023/08/23 03:29:02;;;;;;;0.40;0.40;;;13.60;99.90;;;;;;5048983;28;20563;-74
2023/08/23 03:31:28;;;;;;;0.40;0.40;;;13.60;99.90;;;;;;5049800;28;20233;-75
2023/08/23 03:33:53;;;;;;;0.52;0.52;;;13.70;99.90;;;;;;5051361;28;20194;-76
2023/08/23 03:36:19;;;;;;;0.43;0.43;;;13.70;99.90;;;;;;5050415;28;20213;-75
2023/08/23 03:38:45;;;;;;;0.45;0.45;;;13.70;99.90;;;;;;5041654;28;20222;-75
2023/08/23 03:41:14;;;;;;;0.45;0.45;;;13.70;99.90;;;;;;5030969;28;20190;-75
2023/08/23 03:43:40;;;;;;;0.40;0.40;;;13.70;99.90;;;;;;5034262;28;20573;-75
2023/08/23 03:46:06;;;;;;;0.40;0.40;;;13.70;99.90;;;;;;5017433;28;20202;-75
2023/08/23 03:48:32;;;;;;;0.40;0.40;;;13.70;99.90;;;;;;5034110;28;20202;-76
2023/08/23 03:50:59;;;;;;;0.50;0.50;;;13.80;99.90;;;;;;5034214;28;20672;-75
2023/08/23 03:53:25;;;;;;;0.50;0.50;;;13.80;99.90;;;;;;5035182;28;20582;-75
2023/08/23 03:55:53;;;;;;;0.50;0.50;;;13.80;99.90;;;;;;5035204;28;20281;-76
2023/08/23 03:58:20;;;;;;;0.55;0.55;;;13.80;99.90;;;;;;5054496;28;20292;-75
2023/08/23 04:00:51;;;;;;;0.73;0.73;;;13.80;99.90;;;;;;5053953;28;20220;-76
2023/08/23 04:03:17;;;;;;;0.57;0.55;;;13.90;99.90;;;;;;5032677;28;20210;-76
2023/08/23 04:05:42;;;;;;;3.20;1.25;;;13.90;99.90;;;;;;5034624;28;20226;-76
2023/08/23 04:08:08;;;;;;;0.50;0.50;;;13.90;99.90;;;;;;5035173;28;20248;-75
2023/08/23 04:10:34;;;;;;;2.33;0.95;;;13.90;99.90;;;;;;5033461;28;20239;-76
2023/08/23 04:13:00;;;;;;;0.40;0.40;;;13.90;99.90;;;;;;5033755;28;20566;-75
2023/08/23 04:15:27;;;;;;;0.50;0.50;;;13.90;99.90;;;;;;5021616;28;20577;-75
2023/08/23 04:17:52;;;;;;;0.70;0.70;;;14.00;99.90;;;;;;5054691;28;20213;-75
2023/08/23 04:20:18;;;;;;;1.10;0.55;;;14.00;99.90;;;;;;5054419;28;20224;-75
2023/08/23 04:22:44;;;;;;;0.70;0.70;;;14.10;99.90;;;;;;5054600;28;20209;-75
2023/08/23 04:25:11;;;;;;;0.60;0.60;;;14.10;99.90;;;;;;5054625;28;20276;-75
2023/08/23 04:27:37;;;;;;;0.50;0.50;;;14.20;99.90;;;;;;5054384;28;20198;-76
2023/08/23 04:30:06;;;;;;;0.80;0.80;;;14.20;99.90;;;;;;5054445;28;20208;-76
2023/08/23 04:32:32;;;;;;;0.40;0.40;;;14.20;99.90;;;;;;5036246;28;20197;-75
2023/08/23 04:34:58;;;;;;;0.40;0.40;;;14.30;99.90;;;;;;5054649;28;20221;-72
2023/08/23 04:37:24;;;;;;;0.40;0.40;;;14.40;99.90;;;;;;5054123;28;20252;-72
2023/08/23 04:39:49;;;;;;;0.40;0.40;;;14.40;99.90;;;;;;5052874;28;20564;-72
2023/08/23 04:42:15;;;;;;;0.63;0.63;;;14.40;99.90;;;;;;5054651;28;20285;-72
2023/08/23 04:44:41;;;;;;;0.40;0.40;;;14.40;99.90;;;;;;5053940;28;20196;-74
2023/08/23 04:47:07;;;;;;;0.45;0.45;;;14.50;99.90;;;;;;5052971;28;20221;-77
2023/08/23 04:49:32;;;;;;;0.40;0.40;;;14.50;99.90;;;;;;5054170;28;20268;-75
2023/08/23 04:51:58;;;;;;;0.40;0.40;;;14.50;99.90;;;;;;5054534;28;20677;-75
2023/08/23 04:54:24;;;;;;;0.80;0.75;;;14.50;99.90;;;;;;5052661;28;20243;-73
2023/08/23 04:56:50;;;;;;;0.40;0.40;;;14.60;99.90;;;;;;5053934;28;20667;-74
2023/08/23 04:59:16;;;;;;;0.50;0.50;;;14.60;99.90;;;;;;5053679;28;20240;-73
2023/08/23 05:01:41;;;;;;;1.73;1.40;;;14.70;99.90;;;;;;5053008;28;20197;-74
2023/08/23 05:04:07;;;;;;;1.13;0.77;;;14.70;99.90;;;;;;5035602;28;20236;-74
2023/08/23 05:06:36;;;;;;;0.70;0.70;;;14.70;99.90;;;;;;5053571;28;20543;-74
2023/08/23 05:09:05;;;;;;;1.25;1.15;;;14.70;99.90;;;;;;5053990;28;20197;-74
2023/08/23 05:11:31;;;;;;;0.47;0.47;;;14.70;99.90;;;;;;5053254;28;20189;-73
2023/08/23 05:13:57;;;;;;;0.57;0.57;;;14.80;99.90;;;;;;5053776;28;20193;-73
2023/08/23 05:16:25;;;;;;;0.52;0.52;;;14.80;99.90;;;;;;5050886;28;20684;-73
2023/08/23 05:18:51;;;;;;;0.47;0.47;;;14.90;99.90;;;;;;5033767;28;20214;-73
2023/08/23 05:21:17;;;;;;;2.50;0.73;;;14.90;99.90;;;;;;5033541;28;20197;-73
2023/08/23 05:23:42;;;;;;;0.77;0.77;;;15.00;99.90;;;;;;5033255;28;20186;-74
2023/08/23 05:26:08;;;;;;;0.30;0.30;;;15.10;99.90;;;;;;5033603;28;20190;-74
2023/08/23 05:28:34;;;;;;;0.40;0.40;;;15.10;99.90;;;;;;5015517;28;20206;-73
2023/08/23 05:31:02;;;;;;;0.32;0.32;;;15.20;99.90;;;;;;5033492;28;20208;-73
2023/08/23 05:33:28;;;;;;;1.00;0.80;;;15.20;99.90;;;;;;5052622;28;20197;-74
2023/08/23 05:35:54;;;;;;;0.50;0.50;;;15.30;99.90;;;;;;5053733;28;20647;-74
2023/08/23 05:38:20;;;;;;;0.43;0.43;;;15.40;99.90;;;;;;5053189;28;20210;-74
2023/08/23 05:40:47;;;;;;;0.50;0.50;;;15.50;99.90;;;;;;5052874;28;20243;-74
2023/08/23 05:43:13;;;;;;;0.73;0.73;;;15.50;99.90;;;;;;5052171;28;20611;-71
2023/08/23 05:45:39;;;;;;;0.40;0.40;;;15.60;99.90;;;;;;5052953;28;20198;-71
2023/08/23 05:48:05;;;;;;;0.43;0.43;;;15.70;99.90;;;;;;5053336;28;20589;-71
2023/08/23 05:50:30;;;;;;;0.30;0.30;;;15.70;99.90;;;;;;5053148;28;20198;-72
2023/08/23 05:52:56;;;;;;;1.38;0.82;;;15.80;99.90;;;;;;5052982;28;20247;-71
2023/08/23 05:55:22;;;;;;;1.15;0.52;;;15.80;99.90;;;;;;5053208;28;20219;-71
2023/08/23 05:57:47;;;;;;;0.80;0.65;;;15.90;99.90;;;;;;5051530;28;20267;-71
2023/08/23 06:00:16;;;;;;;0.77;0.52;;;15.90;99.90;;;;;;5053050;28;20185;-71
2023/08/23 06:02:43;;;;;;;0.60;0.60;;;16.00;99.90;;;;;;5052269;28;20196;-71
2023/08/23 06:05:11;;;;;;;0.93;0.77;;;16.10;99.90;;;;;;5052125;28;20565;-71
2023/08/23 06:07:37;;;;;;;0.60;0.60;;;16.10;99.90;;;;;;5034155;28;20696;-72
2023/08/23 06:10:04;;;;;;;5.35;1.35;;;16.20;99.90;;;;;;5034373;28;20201;-72
2023/08/23 06:12:29;;;;;;;0.50;0.50;;;16.20;99.90;;;;;;5052124;28;20240;-71
2023/08/23 06:14:55;;;;;;;1.23;1.13;;;16.20;99.90;;;;;;5052717;28;20224;-72
2023/08/23 06:17:21;;;;;;;4.25;0.95;;;16.30;99.90;;;;;;5052302;28;20282;-71
2023/08/23 06:19:47;;;;;;;0.40;0.40;;;16.40;99.90;;;;;;5052791;28;20194;-72
2023/08/23 06:22:13;;;;;;;0.25;0.25;;;16.40;99.90;;;;;;5052831;28;20221;-72
2023/08/23 06:24:38;;;;;;;1.77;0.63;;;16.50;99.90;;;;;;5052389;28;20652;-71
2023/08/23 06:27:04;;;;;;;0.50;0.50;;;16.50;99.90;;;;;;5052494;28;20192;-72
2023/08/23 06:29:30;;;;;;;0.30;0.30;;;16.60;99.90;;;;;;5052261;28;20243;-72
2023/08/23 06:31:56;;;;;;;1.15;0.70;;;16.60;99.90;;;;;;5052456;28;20200;-71
2023/08/23 06:34:21;;;;;;;0.43;0.43;;;16.70;99.90;;;;;;5052310;28;20186;-72
2023/08/23 06:36:47;;;;;;;0.30;0.30;;;16.70;99.90;;;;;;5052231;28;20194;-71
2023/08/23 06:39:13;;;;;;;0.63;0.57;;;16.80;99.90;;;;;;5052196;28;20208;-73
2023/08/23 06:41:38;;;;;;;0.40;0.40;;;16.80;99.90;;;;;;5052150;28;20185;-73
2023/08/23 06:44:04;;;;;;;0.38;0.38;;;16.90;99.90;;;;;;5052220;28;20679;-72
2023/08/23 06:46:30;;;;;;;0.40;0.40;;;17.00;99.90;;;;;;5049371;28;20197;-72
2023/08/23 06:48:56;;;;;;;0.55;0.55;;;17.10;99.90;;;;;;5051071;28;20272;-71
2023/08/23 06:51:22;;;;;;;1.95;1.13;;;17.10;99.90;;;;;;5051564;28;20202;-71
2023/08/23 06:53:51;;;;;;;0.35;0.35;;;17.10;99.90;;;;;;5052306;28;20200;-70
2023/08/23 06:56:16;;;;;;;0.68;0.40;;;17.10;99.90;;;;;;5033644;28;20255;-72
2023/08/23 06:58:42;;;;;;;1.05;0.85;;;17.10;99.90;;;;;;5051928;28;20209;-71
2023/08/23 07:01:14;;;;;;;0.10;0.10;;;17.20;99.90;;;;;;5052193;28;20224;-71
2023/08/23 07:03:44;;;;;;;2.47;0.75;;;17.30;99.90;;;;;;5051766;28;20202;-71
2023/08/23 07:06:12;;;;;;;0.70;0.50;;;17.50;99.90;;;;;;5052042;28;20239;-74
2023/08/23 07:08:38;;;;;;;0.20;0.20;;;17.50;99.90;;;;;;5051696;28;20650;-75
2023/08/23 07:11:04;;;;;;;0.32;0.32;;;17.60;99.90;;;;;;5052025;28;20224;-74
2023/08/23 07:13:30;;;;;;;0.40;0.40;;;17.70;99.90;;;;;;5050696;28;20606;-75
2023/08/23 07:15:56;;;;;;;0.20;0.20;;;17.80;99.90;;;;;;5052054;28;20205;-75
2023/08/23 07:18:21;;;;;;;0.20;0.20;;;17.70;99.90;;;;;;5036291;28;20270;-75
2023/08/23 07:20:47;;;;;;;1.08;0.98;;;17.70;99.90;;;;;;5055451;28;20193;-75
2023/08/23 07:23:13;;;;;;;0.20;0.20;;;17.60;99.90;;;;;;5054260;28;20202;-75
2023/08/23 07:25:39;;;;;;;1.40;0.52;;;17.70;99.90;;;;;;5055753;28;20190;-75
2023/08/23 07:28:05;;;;;;;10.65;0.38;;;17.70;99.90;;;;;;5055602;28;20216;-75
2023/08/23 07:30:31;;;;;;;0.20;0.20;;;17.70;99.90;;;;;;5054974;28;20200;-76
2023/08/23 07:32:56;;;;;;;0.52;0.28;;;17.80;99.90;;;;;;5055617;28;20193;-75
2023/08/23 07:35:22;;;;;;;0.10;0.10;;;17.80;99.90;;;;;;5055277;28;20221;-75
2023/08/23 07:37:48;;;;;;;0.17;0.17;;;17.90;99.90;;;;;;5055536;28;20209;-76
2023/08/23 07:40:14;;;;;;;0.10;0.10;;;17.90;99.90;;;;;;5055238;28;20190;-75
2023/08/23 07:42:41;;;;;;;0.63;0.63;;;18.10;99.90;;;;;;5054953;28;20193;-75
2023/08/23 07:45:08;;;;;;;0.17;0.17;;;18.20;99.90;;;;;;5055347;28;20236;-75
2023/08/23 07:47:34;;;;;;;0.38;0.35;;;18.20;99.90;;;;;;5055126;28;20272;-75
2023/08/23 07:50:00;;;;;;;0.28;0.28;;;18.10;99.90;;;;;;5055409;28;20276;-74
2023/08/23 07:52:25;;;;;;;0.32;0.30;;;18.00;99.90;;;;;;5054977;28;20553;-75
2023/08/23 07:54:51;;;;;;;1.85;0.82;;;18.00;99.90;;;;;;5051505;28;20209;-75
2023/08/23 07:57:17;;;;;;;4.15;0.35;;;18.00;99.90;;;;;;5035186;28;20357;-75
2023/08/23 07:59:42;;;;;;;0.20;0.20;;;18.10;99.90;;;;;;5035096;28;20194;-75
2023/08/23 08:02:08;;;;;;;0.25;0.25;;;18.20;99.90;;;;;;5035315;28;20711;-75
2023/08/23 08:04:34;;;;;;;0.55;0.52;;;18.40;99.90;;;;;;5034685;28;20226;-75
2023/08/23 08:07:00;;;;;;;0.22;0.15;;;18.50;99.90;;;;;;5035066;28;20244;-75
2023/08/23 08:09:26;;;;;;;1.60;0.73;;;18.70;99.90;;;;;;5034871;28;20198;-75
2023/08/23 08:11:51;;;;;;;0.20;0.20;;;18.80;99.90;;;;;;5035074;28;20190;-76
2023/08/23 08:14:17;;;;;;;0.38;0.38;;;18.90;99.90;;;;;;5035247;28;20195;-73
2023/08/23 08:16:43;;;;;;;0.30;0.30;;;18.90;99.90;;;;;;5017006;28;20779;-73
2023/08/23 08:19:09;;;;;;;3.08;0.70;;;18.80;99.90;;;;;;5017330;28;20677;-72
2023/08/23 08:21:36;;;;;;;2.70;0.43;;;18.70;99.90;;;;;;5034765;28;20239;-71
2023/08/23 08:24:02;;;;;;;2.85;0.57;;;18.70;99.90;;;;;;5034651;28;20182;-72
2023/08/23 08:26:28;;;;;;;0.15;0.15;;;18.80;99.90;;;;;;5034471;28;20657;-71
2023/08/23 08:28:54;;;;;;;0.88;0.50;;;19.10;99.90;;;;;;5034519;28;20202;-71
2023/08/23 08:31:20;;;;;;;0.30;0.20;;;19.30;99.90;;;;;;5034363;28;20287;-73
2023/08/23 08:33:47;;;;;;;0.22;0.17;;;19.50;99.90;;;;;;5033488;28;20201;-72
2023/08/23 08:36:13;;;;;;;0.10;0.10;;;19.70;99.90;;;;;;5017013;28;20206;-73
2023/08/23 08:38:42;;;;;;;0.10;0.10;;;19.90;99.90;;;;;;5045850;28;20228;-72
2023/08/23 08:41:09;;;;;;;1.45;0.88;;;20.10;99.90;;;;;;5054281;28;20263;-72
2023/08/23 08:43:36;;;;;;;0.20;0.20;;;20.40;99.90;;;;;;5054067;28;20186;-71
2023/08/23 08:46:06;;;;;;;0.50;0.50;;;20.40;99.90;;;;;;5053584;28;20225;-72
2023/08/23 08:48:32;;;;;;;0.40;0.38;;;20.30;99.90;;;;;;5053889;28;20197;-72
2023/08/23 08:50:59;;;;;;;0.60;0.43;;;20.30;99.90;;;;;;5054500;28;20652;-71
2023/08/23 08:53:26;;;;;;;0.30;0.30;;;20.20;99.90;;;;;;5054522;28;20260;-72
2023/08/23 08:55:52;;;;;;;17.77;0.52;;;20.00;99.90;;;;;;5053850;28;20193;-71
2023/08/23 08:58:21;;;;;;;0.20;0.20;;;19.90;99.90;;;;;;5053798;28;20638;-72
2023/08/23 09:00:51;;;;;;;0.20;0.20;;;19.90;99.90;;;;;;5054271;28;20186;-72
2023/08/23 09:03:18;;;;;;;0.20;0.20;;;19.80;99.90;;;;;;5053955;28;20198;-72
2023/08/23 09:05:48;;;;;;;0.10;0.10;;;19.80;99.90;;;;;;5020568;28;20257;-71
2023/08/23 09:08:14;;;;;;;1.00;0.28;;;20.10;99.90;;;;;;5034489;28;20190;-71
2023/08/23 09:10:40;;;;;;;0.35;0.35;;;20.20;99.90;;;;;;5034029;28;20233;-72
2023/08/23 09:13:06;;;;;;;0.28;0.28;;;20.10;99.90;;;;;;5034134;28;20209;-74
2023/08/23 09:15:32;;;;;;;0.15;0.15;;;20.20;99.90;;;;;;5033755;28;20212;-77
2023/08/23 09:17:59;;;;;;;1.20;0.38;;;20.40;99.90;;;;;;5032636;28;20584;-78
2023/08/23 09:20:25;;;;;;;0.43;0.30;;;21.10;99.90;;;;;;5033842;28;20197;-78
2023/08/23 09:22:55;;;;;;;0.25;0.25;;;21.90;99.90;;;;;;5034074;28;20190;-77
2023/08/23 09:25:23;;;;;;;0.10;0.10;;;21.90;99.90;;;;;;5015319;28;20277;-72
2023/08/23 09:27:49;;;;;;;0.15;0.15;;;22.00;99.90;;;;;;5033963;28;20545;-73
2023/08/23 09:30:15;;;;;;;0.25;0.25;;;22.30;99.90;;;;;;5033811;28;20566;-72
2023/08/23 09:32:42;;;;;;;0.60;0.60;;;22.30;99.90;;;;;;5033519;28;20209;-73
2023/08/23 09:35:11;;;;;;;1.17;0.70;;;22.00;99.90;;;;;;5033458;28;20531;-72
2023/08/23 09:37:45;;;;;;;0.13;0.13;;;21.60;99.90;;;;;;5033373;28;20221;-72
2023/08/23 09:40:26;;;;;;;3.42;0.43;;;21.40;99.90;;;;;;5033301;28;20669;-73
2023/08/23 09:42:55;;;;;;;2.30;0.65;;;21.40;99.90;;;;;;5033512;28;20196;-72
2023/08/23 09:45:23;;;;;;;0.20;0.20;;;21.60;99.90;;;;;;5015388;28;20285;-72
2023/08/23 09:48:17;;;;;;;0.20;0.20;;;21.40;99.90;;;;;;5033193;28;20229;-73
2023/08/23 09:50:43;;;;;;;0.30;0.30;;;21.50;99.90;;;;;;5030485;28;20214;-73
2023/08/23 09:53:29;;;;;;;0.30;0.30;;;21.40;99.90;;;;;;5033621;28;20252;-73
2023/08/23 09:55:55;;;;;;;1.23;0.40;;;21.30;99.90;;;;;;5032923;28;20698;-72
2023/08/23 09:58:21;;;;;;;0.28;0.28;;;21.00;99.90;;;;;;5032602;28;20206;-72
2023/08/23 10:00:48;;;;;;;0.65;0.43;;;20.90;99.90;;;;;;5032714;28;20198;-71
2023/08/23 10:03:15;;;;;;;0.17;0.17;;;20.70;99.90;;;;;;5033004;28;20737;-72
2023/08/23 10:05:42;;;;;;;9.73;0.65;;;20.80;99.90;;;;;;5047906;28;20252;-72
2023/08/23 10:08:10;;;;;;;0.45;0.45;;;20.80;99.90;;;;;;5051935;28;20743;-71
2023/08/23 10:10:37;;;;;;;0.40;0.40;;;20.90;99.90;;;;;;5052601;28;20193;-72
2023/08/23 10:13:06;;;;;;;0.52;0.30;;;20.90;99.90;;;;;;5053007;28;20206;-75
2023/08/23 10:15:35;;;;;;;0.20;0.20;;;20.90;99.90;;;;;;5052602;28;20205;-71
2023/08/23 10:18:03;;;;;;;0.28;0.28;;;20.90;99.90;;;;;;5052612;28;20206;-72
2023/08/23 10:20:34;;;;;;;2.72;0.73;;;20.80;99.90;;;;;;5052509;28;20566;-72
2023/08/23 10:23:00;;;;;;;0.38;0.38;;;20.90;99.90;;;;;;5052458;28;20196;-73
2023/08/23 10:25:25;;;;;;;6.18;0.65;;;21.10;99.90;;;;;;5050945;28;20194;-76
2023/08/23 10:27:55;;;;;;;0.10;0.10;;;21.10;99.90;;;;;;5052827;28;20190;-78
2023/08/23 10:30:24;;;;;;;0.10;0.10;;;21.10;99.90;;;;;;5065043;28;20575;-78
2023/08/23 10:32:51;;;;;;;0.35;0.25;;;21.10;99.90;;;;;;5051265;28;20685;-78
2023/08/23 10:35:36;;;;;;;0.35;0.35;;;21.00;99.90;;;;;;5051150;28;20251;-72
2023/08/23 10:38:06;;;;;;;0.20;0.20;;;20.90;99.90;;;;;;5052509;28;20615;-73
2023/08/23 10:40:34;;;;;;;0.80;0.47;;;20.80;99.90;;;;;;5052369;28;20542;-73
2023/08/23 10:43:12;;;;;;;0.28;0.20;;;20.60;99.90;;;;;;5052546;28;20650;-73
2023/08/23 10:46:03;;;;;;;0.40;0.40;;;20.60;99.90;;;;;;5032130;28;20623;-73
2023/08/23 10:48:29;;;;;;;0.10;0.10;;;20.70;99.90;;;;;;5032293;28;20669;-74
2023/08/23 10:50:55;;;;;;;0.10;0.10;;;20.60;99.90;;;;;;5050893;28;20228;-72
2023/08/23 10:53:21;;;;;;;0.68;0.40;;;20.70;99.90;;;;;;5054599;28;20193;-73
2023/08/23 10:55:48;;;;;;;0.20;0.20;;;20.70;99.90;;;;;;5056135;28;20193;-73
2023/08/23 10:58:14;;;;;;;0.20;0.20;;;20.80;99.90;;;;;;5056368;28;20205;-74
2023/08/23 11:00:41;;;;;;;0.65;0.45;;;20.90;99.90;;;;;;5055941;28;20247;-73
2023/08/23 11:03:10;;;;;;;8.77;0.80;;;21.10;99.90;;;;;;5071584;28;20666;-73
2023/08/23 11:05:36;;;;;;;0.30;0.25;;;21.20;99.90;;;;;;5055803;28;20710;-72
2023/08/23 11:08:02;;;;;;;19.65;0.40;;;21.10;99.90;;;;;;5054911;28;20284;-72
2023/08/23 11:10:29;;;;;;;0.43;0.40;;;21.20;99.90;;;;;;5055973;28;20193;-72
2023/08/23 11:12:55;;;;;;;0.00;0.00;;;21.20;99.90;;;;;;5056114;28;20272;-72
2023/08/23 11:15:21;;;;;;;0.10;0.10;;;21.30;99.90;;;;;;5055033;28;20236;-73
2023/08/23 11:17:48;;;;;;;0.52;0.52;;;21.30;99.90;;;;;;5054616;28;20272;-73
2023/08/23 11:20:13;;;;;;;0.20;0.20;;;21.30;99.90;;;;;;5054513;28;20194;-73
2023/08/23 11:22:40;;;;;;;0.85;0.38;;;21.30;99.90;;;;;;5055798;28;20212;-72
2023/08/23 11:25:07;;;;;;;0.10;0.10;;;21.30;99.90;;;;;;5055733;28;20181;-72
2023/08/23 11:27:33;;;;;;;0.10;0.10;;;21.30;99.90;;;;;;5054053;28;20197;-72
2023/08/23 11:29:59;;;;;;;0.28;0.28;;;21.50;99.90;;;;;;5055995;28;20190;-72
2023/08/23 11:32:26;;;;;;;0.10;0.10;;;21.80;99.90;;;;;;5054801;28;20659;-72
2023/08/23 11:34:56;;;;;;;2.17;1.05;;;22.20;99.90;;;;;;5055812;28;20658;-72
2023/08/23 11:37:25;;;;;;;0.30;0.30;;;22.80;99.90;;;;;;5054028;28;20204;-73
2023/08/23 11:39:58;;;;;;;0.30;0.30;;;23.60;99.90;;;;;;5054492;28;20221;-72
2023/08/23 11:42:25;;;;;;;0.55;0.55;;;24.30;99.90;;;;;;5055201;28;20201;-72
2023/08/23 11:44:55;;;;;;;0.43;0.35;;;24.70;99.90;;;;;;5055101;28;20194;-73
2023/08/23 11:47:25;;;;;;;0.30;0.17;;;25.00;99.90;;;;;;5055166;28;20275;-78
2023/08/23 11:49:52;;;;;;;1.25;0.60;;;24.80;99.90;;;;;;5037361;28;20198;-77
2023/08/23 11:52:18;;;;;;;0.20;0.17;;;25.10;99.90;;;;;;5053723;28;20288;-79
2023/08/23 11:54:44;;;;;;;0.00;0.00;;;25.50;99.90;;;;;;5054943;28;20251;-78
2023/08/23 11:57:13;;;;;;;0.15;0.15;;;25.90;99.90;;;;;;5055228;28;20193;-78
2023/08/23 11:59:39;;;;;;;0.45;0.38;;;25.90;99.90;;;;;;5055231;28;20645;-79
2023/08/23 12:02:06;;;;;;;0.15;0.15;;;25.40;99.90;;;;;;5055396;28;20248;-78
2023/08/23 12:04:32;;;;;;;0.20;0.20;;;24.70;99.90;;;;;;5048005;28;20719;-76
2023/08/23 12:06:58;;;;;;;0.32;0.32;;;23.90;99.90;;;;;;5035620;28;20186;-73
2023/08/23 12:09:25;;;;;;;0.75;0.60;;;23.10;99.90;;;;;;5034955;28;20190;-75
2023/08/23 12:11:53;;;;;;;0.63;0.55;;;22.50;99.90;;;;;;5035038;28;20208;-75
2023/08/23 12:14:19;;;;;;;0.25;0.25;;;22.00;99.90;;;;;;5034991;28;20202;-76
2023/08/23 12:16:45;;;;;;;0.20;0.20;;;21.70;99.90;;;;;;5035222;28;20202;-76
2023/08/23 12:19:10;;;;;;;0.63;0.63;;;21.30;99.90;;;;;;5034835;28;20263;-76
2023/08/23 12:21:36;;;;;;;0.30;0.30;;;20.90;99.90;;;;;;5017438;28;20275;-76
2023/08/23 12:24:02;;;;;;;0.30;0.30;;;20.70;99.90;;;;;;5035153;28;20269;-76
2023/08/23 12:26:28;;;;;;;1.65;0.60;;;20.60;99.90;;;;;;5017051;28;20186;-76
2023/08/23 12:28:54;;;;;;;1.05;0.28;;;20.50;99.90;;;;;;5034813;28;20233;-77
2023/08/23 12:31:20;;;;;;;0.95;0.75;;;20.50;99.90;;;;;;5017109;28;20213;-75
2023/08/23 12:33:46;;;;;;;0.30;0.30;;;20.50;99.90;;;;;;5033730;28;20194;-76
2023/08/23 12:36:15;;;;;;;0.20;0.20;;;20.70;99.90;;;;;;5030185;28;20214;-76
2023/08/23 12:38:41;;;;;;;0.20;0.20;;;21.10;99.90;;;;;;5014606;28;20666;-77
2023/08/23 12:41:07;;;;;;;3.40;1.02;;;21.60;99.90;;;;;;4997650;28;20701;-76
2023/08/23 12:43:33;;;;;;;0.22;0.22;;;22.10;99.90;;;;;;5034111;28;20269;-76